Aeroporto :
LOGIN :

Iscrizione | Disclaimer

   EN    FR    IT 

 










Sommario :    VFR   VFR Marginale   IFR   IFR Intensivo   IFR Molto Intensivo
Visibilità : 
Base nubi : 
>= 8 km
>= 3000ft
5 / 8 km
1000 / 3000 ft
1500m / 5 km
500 / 1000 ft
800 / 1500m
200 / 500 ft
< 800m
< 200 ft
Simboli :   Temporali  Nebbia  Neve Forte  Precipitazioni Forti  Vento > 20 kt
SIGMETs :   Varie  Temporali  Ghiacco  Turbolenza  Onda orograficha  Ceneri Vulcaniche







- Altitudine del aeroporto : 659 ft
- Codice IATA : LYN
- Carte del aeroporto


LFLY - Lyon Bron

ULTIMO METAR :
  • 201530Z AUTO 10006KT 9999 BKN050 BKN068 BKN180 07/02 Q1002 BECMG 18012KT

METARs OBSOLETI :
  • 201500Z AUTO 15005KT 110V180 9999 OVC050 07/02 Q1001 NOSIG
  • 201430Z AUTO 15005KT 090V180 9999 OVC047 07/02 Q1001 NOSIG
  • 201400Z AUTO 14007KT 110V170 9999 OVC047 07/02 Q1001 NOSIG
  • 201330Z AUTO 14007KT 110V170 9999 OVC045 07/02 Q1001 NOSIG
  • 201300Z AUTO 18006KT 140V210 9999 SCT038 BKN046 06/02 Q1001 NOSIG

TAF TAF LFLY
Valido dal 20 a 12 ore il 21 a 12 ore UTC


201100Z 2012/2112 18012KT 9999 BKN035
TEMPO 2018/2104 -RA SCT012 BKN025
BECMG 2020/2022 34004KT
PROB40
TEMPO 2022/2103 4000 RA BKN012
TEMPO 2104/2112 BKN004
ATIS : +33 4 72 15 87 96
Nessun NOTAM noto per questo aeroporto.
1 SIGMET conosciuto per la FIR Marseille (LFMM) :
 
Temporali affogati
LFMM SIGMET 1 VALID 201545/201700 LFPW
LFMM MARSEILLE FIR/UIR EMBD TS OBS AT 1545Z WI N4100 E00430 - N4145 E00430 - N4200 E00515 - N4045 E00600 - N4045 E00515 - N4100 E00430 TOP FL320 MOV E 30KT INTSF=



MetMap, La meteo Aeronautica in un colpo d'occhio ! - Copyright ORBIFLY Dicembre 2007 - Disclaimer

ORBIFLY MET'MAP TEAM :

Programmazione e sviluppo : Alexandra Zaïnal
Concezione e sviluppo : Baudouin d'Aumeries
Co-Programmazione e sviluppo : Marc-Olivier Méhu
Supporto tecnico e logistico : Manuel Goepfert
Aiuto per la traduzione : Arnaldo La Scala

Contatto : metmap@orbifly.com




FONTI E CREDITI :

   NOAA